Search for airport 
image banner adimage banner adimage banner ad
image banner ad

09CL - Alta Sierra

Located in Grass Valley, United States

ICAO - 09CL, IATA -

Data provided by Airmate  

General information

Coordinates: N39°6'43" W121°3'19"
Elevation is 2280 feet MSL.
Magnetic variation is 16° East
View others Airports in California

Operational data

Special qualification required
Current time UTC:
Current local time:
Weather at : KGOO - Nevada County Air Park ( 13 km )
METAR: KGOO 221255Z AUTO 00000KT 10SM CLR 18/05 A2995 RMK A01
View NOTAMs / SUP AIP / TFR affecting this airport [VIEW]
Communications frequencies: [VIEW]

Runways:

RWY identifierQFULength (ft)Width (ft)SurfaceLDA (ft)
01283450ASPH
19283450ASPH

Airport contact information

Address: Grass Valley United States

Satellite view of 09CL